sensor_id;sensor_type;location;lat;lon;timestamp;P1;durP1;ratioP1;P2;durP2;ratioP2
30420;SDS011;17218;54.070;10.012;2024-02-14T00:00:11;12.47;;;5.83;;
30420;SDS011;17218;54.070;10.012;2024-02-14T00:02:39;8.57;;;5.57;;
30420;SDS011;17218;54.070;10.012;2024-02-14T00:05:08;9.97;;;4.43;;
30420;SDS011;17218;54.070;10.012;2024-02-14T00:07:35;9.10;;;5.67;;
30420;SDS011;17218;54.070;10.012;2024-02-14T00:10:02;9.60;;;5.47;;
30420;SDS011;17218;54.070;10.012;2024-02-14T00:12:30;8.03;;;5.63;;
30420;SDS011;17218;54.070;10.012;2024-02-14T00:14:57;7.07;;;5.07;;
30420;SDS011;17218;54.070;10.012;2024-02-14T00:17:24;6.70;;;5.07;;
30420;SDS011;17218;54.070;10.012;2024-02-14T00:19:51;9.30;;;5.00;;
30420;SDS011;17218;54.070;10.012;2024-02-14T00:22:19;11.03;;;6.40;;
30420;SDS011;17218;54.070;10.012;2024-02-14T00:24:45;8.33;;;6.00;;
30420;SDS011;17218;54.070;10.012;2024-02-14T00:27:12;7.73;;;5.37;;
30420;SDS011;17218;54.070;10.012;2024-02-14T00:29:39;6.53;;;5.13;;
30420;SDS011;17218;54.070;10.012;2024-02-14T00:32:05;7.93;;;4.80;;
30420;SDS011;17218;54.070;10.012;2024-02-14T00:34:32;9.47;;;4.73;;
30420;SDS011;17218;54.070;10.012;2024-02-14T00:36:59;8.67;;;5.40;;
30420;SDS011;17218;54.070;10.012;2024-02-14T00:39:26;9.43;;;5.33;;
30420;SDS011;17218;54.070;10.012;2024-02-14T00:41:53;8.03;;;5.40;;
30420;SDS011;17218;54.070;10.012;2024-02-14T00:44:21;6.07;;;4.70;;
30420;SDS011;17218;54.070;10.012;2024-02-14T00:46:47;7.90;;;5.30;;
30420;SDS011;17218;54.070;10.012;2024-02-14T00:49:14;6.43;;;4.00;;
30420;SDS011;17218;54.070;10.012;2024-02-14T00:51:40;7.67;;;4.67;;
30420;SDS011;17218;54.070;10.012;2024-02-14T00:54:07;5.33;;;4.07;;
30420;SDS011;17218;54.070;10.012;2024-02-14T00:56:35;5.53;;;4.67;;
30420;SDS011;17218;54.070;10.012;2024-02-14T00:59:01;6.77;;;4.37;;
30420;SDS011;17218;54.070;10.012;2024-02-14T01:01:28;5.53;;;4.27;;
30420;SDS011;17218;54.070;10.012;2024-02-14T01:03:54;4.60;;;3.73;;
30420;SDS011;17218;54.070;10.012;2024-02-14T01:06:21;4.57;;;3.63;;
30420;SDS011;17218;54.070;10.012;2024-02-14T01:08:48;4.47;;;3.60;;
30420;SDS011;17218;54.070;10.012;2024-02-14T01:11:14;6.53;;;3.80;;
30420;SDS011;17218;54.070;10.012;2024-02-14T01:13:42;4.70;;;3.50;;
30420;SDS011;17218;54.070;10.012;2024-02-14T01:16:08;3.83;;;2.97;;
30420;SDS011;17218;54.070;10.012;2024-02-14T01:18:35;4.07;;;3.37;;
30420;SDS011;17218;54.070;10.012;2024-02-14T01:21:01;3.70;;;2.97;;
30420;SDS011;17218;54.070;10.012;2024-02-14T01:23:28;3.07;;;2.77;;
30420;SDS011;17218;54.070;10.012;2024-02-14T01:25:54;6.10;;;3.57;;
30420;SDS011;17218;54.070;10.012;2024-02-14T01:28:21;5.93;;;2.90;;
30420;SDS011;17218;54.070;10.012;2024-02-14T01:30:49;2.70;;;2.50;;
30420;SDS011;17218;54.070;10.012;2024-02-14T01:33:16;3.70;;;2.73;;
30420;SDS011;17218;54.070;10.012;2024-02-14T01:35:42;4.93;;;3.07;;
30420;SDS011;17218;54.070;10.012;2024-02-14T01:38:09;2.83;;;2.40;;
30420;SDS011;17218;54.070;10.012;2024-02-14T01:40:37;5.07;;;2.93;;
30420;SDS011;17218;54.070;10.012;2024-02-14T01:43:03;4.23;;;2.50;;
30420;SDS011;17218;54.070;10.012;2024-02-14T01:45:30;5.27;;;2.90;;
30420;SDS011;17218;54.070;10.012;2024-02-14T01:47:58;4.18;;;2.55;;
30420;SDS011;17218;54.070;10.012;2024-02-14T01:50:24;2.90;;;2.40;;
30420;SDS011;17218;54.070;10.012;2024-02-14T01:52:54;6.77;;;2.40;;
30420;SDS011;17218;54.070;10.012;2024-02-14T01:55:22;3.93;;;2.33;;
30420;SDS011;17218;54.070;10.012;2024-02-14T01:57:49;5.60;;;2.33;;
30420;SDS011;17218;54.070;10.012;2024-02-14T02:00:16;3.23;;;2.33;;
30420;SDS011;17218;54.070;10.012;2024-02-14T02:02:44;3.67;;;2.30;;
30420;SDS011;17218;54.070;10.012;2024-02-14T02:05:13;2.77;;;2.27;;
30420;SDS011;17218;54.070;10.012;2024-02-14T02:07:41;2.70;;;1.90;;
30420;SDS011;17218;54.070;10.012;2024-02-14T02:10:08;4.90;;;2.10;;
30420;SDS011;17218;54.070;10.012;2024-02-14T02:12:36;2.50;;;1.90;;
30420;SDS011;17218;54.070;10.012;2024-02-14T02:15:04;4.50;;;2.00;;
30420;SDS011;17218;54.070;10.012;2024-02-14T02:17:31;3.80;;;1.93;;
30420;SDS011;17218;54.070;10.012;2024-02-14T02:19:59;4.00;;;2.47;;
30420;SDS011;17218;54.070;10.012;2024-02-14T02:22:27;4.77;;;2.40;;
30420;SDS011;17218;54.070;10.012;2024-02-14T02:24:55;2.53;;;2.00;;
30420;SDS011;17218;54.070;10.012;2024-02-14T02:27:22;6.33;;;2.30;;
30420;SDS011;17218;54.070;10.012;2024-02-14T02:29:48;4.53;;;2.20;;
30420;SDS011;17218;54.070;10.012;2024-02-14T02:32:15;2.67;;;1.90;;
30420;SDS011;17218;54.070;10.012;2024-02-14T02:34:42;3.37;;;1.87;;
30420;SDS011;17218;54.070;10.012;2024-02-14T02:37:10;2.90;;;2.30;;
30420;SDS011;17218;54.070;10.012;2024-02-14T02:39:37;3.90;;;2.20;;
30420;SDS011;17218;54.070;10.012;2024-02-14T02:42:06;3.50;;;1.87;;
30420;SDS011;17218;54.070;10.012;2024-02-14T02:44:32;2.43;;;2.00;;
30420;SDS011;17218;54.070;10.012;2024-02-14T02:46:58;5.50;;;2.43;;
30420;SDS011;17218;54.070;10.012;2024-02-14T02:49:25;3.93;;;2.53;;
30420;SDS011;17218;54.070;10.012;2024-02-14T02:51:52;2.77;;;1.97;;
30420;SDS011;17218;54.070;10.012;2024-02-14T02:54:19;2.73;;;2.13;;
30420;SDS011;17218;54.070;10.012;2024-02-14T02:56:48;3.53;;;2.10;;
30420;SDS011;17218;54.070;10.012;2024-02-14T02:59:16;4.20;;;2.53;;
30420;SDS011;17218;54.070;10.012;2024-02-14T03:01:42;3.67;;;2.70;;
30420;SDS011;17218;54.070;10.012;2024-02-14T03:04:09;4.30;;;3.07;;
30420;SDS011;17218;54.070;10.012;2024-02-14T03:06:36;2.93;;;2.37;;
30420;SDS011;17218;54.070;10.012;2024-02-14T03:09:03;2.93;;;2.40;;
30420;SDS011;17218;54.070;10.012;2024-02-14T03:11:30;2.80;;;2.17;;
30420;SDS011;17218;54.070;10.012;2024-02-14T03:13:57;7.60;;;4.13;;
30420;SDS011;17218;54.070;10.012;2024-02-14T03:16:25;3.83;;;2.77;;
30420;SDS011;17218;54.070;10.012;2024-02-14T03:18:51;4.10;;;2.73;;
30420;SDS011;17218;54.070;10.012;2024-02-14T03:21:19;3.87;;;3.27;;
30420;SDS011;17218;54.070;10.012;2024-02-14T03:23:46;5.93;;;3.33;;
30420;SDS011;17218;54.070;10.012;2024-02-14T03:26:12;7.00;;;3.20;;
30420;SDS011;17218;54.070;10.012;2024-02-14T03:28:39;5.93;;;3.70;;
30420;SDS011;17218;54.070;10.012;2024-02-14T03:31:05;7.33;;;3.30;;
30420;SDS011;17218;54.070;10.012;2024-02-14T03:33:33;6.83;;;3.20;;
30420;SDS011;17218;54.070;10.012;2024-02-14T03:35:59;4.53;;;3.07;;
30420;SDS011;17218;54.070;10.012;2024-02-14T03:38:26;4.10;;;3.47;;
30420;SDS011;17218;54.070;10.012;2024-02-14T03:40:52;3.63;;;3.03;;
30420;SDS011;17218;54.070;10.012;2024-02-14T03:43:19;4.37;;;3.27;;
30420;SDS011;17218;54.070;10.012;2024-02-14T03:45:47;5.50;;;4.13;;
30420;SDS011;17218;54.070;10.012;2024-02-14T03:48:13;9.17;;;3.93;;
30420;SDS011;17218;54.070;10.012;2024-02-14T03:50:41;4.60;;;3.63;;
30420;SDS011;17218;54.070;10.012;2024-02-14T03:53:08;5.63;;;3.37;;
30420;SDS011;17218;54.070;10.012;2024-02-14T03:55:36;5.73;;;4.20;;
30420;SDS011;17218;54.070;10.012;2024-02-14T03:58:02;4.93;;;3.97;;
30420;SDS011;17218;54.070;10.012;2024-02-14T04:00:30;5.43;;;4.13;;
30420;SDS011;17218;54.070;10.012;2024-02-14T04:02:57;6.80;;;4.00;;
30420;SDS011;17218;54.070;10.012;2024-02-14T04:05:24;7.13;;;4.10;;
30420;SDS011;17218;54.070;10.012;2024-02-14T04:07:53;5.93;;;3.77;;
30420;SDS011;17218;54.070;10.012;2024-02-14T04:10:20;6.10;;;4.03;;
30420;SDS011;17218;54.070;10.012;2024-02-14T04:12:47;5.43;;;4.37;;
30420;SDS011;17218;54.070;10.012;2024-02-14T04:15:14;5.97;;;4.30;;
30420;SDS011;17218;54.070;10.012;2024-02-14T04:17:40;5.67;;;4.27;;
30420;SDS011;17218;54.070;10.012;2024-02-14T04:20:07;6.30;;;3.70;;
30420;SDS011;17218;54.070;10.012;2024-02-14T04:22:34;8.10;;;4.53;;
30420;SDS011;17218;54.070;10.012;2024-02-14T04:25:02;6.70;;;4.63;;
30420;SDS011;17218;54.070;10.012;2024-02-14T04:27:29;6.27;;;4.33;;
30420;SDS011;17218;54.070;10.012;2024-02-14T04:29:56;6.30;;;4.50;;
30420;SDS011;17218;54.070;10.012;2024-02-14T04:32:23;7.10;;;4.77;;
30420;SDS011;17218;54.070;10.012;2024-02-14T04:34:49;9.83;;;4.80;;
30420;SDS011;17218;54.070;10.012;2024-02-14T04:37:16;7.33;;;4.17;;
30420;SDS011;17218;54.070;10.012;2024-02-14T04:39:44;5.70;;;4.10;;
30420;SDS011;17218;54.070;10.012;2024-02-14T04:42:11;6.33;;;4.80;;
30420;SDS011;17218;54.070;10.012;2024-02-14T04:44:38;5.67;;;4.27;;
30420;SDS011;17218;54.070;10.012;2024-02-14T04:47:04;6.53;;;4.17;;
30420;SDS011;17218;54.070;10.012;2024-02-14T04:49:31;6.80;;;4.80;;
30420;SDS011;17218;54.070;10.012;2024-02-14T04:51:57;10.97;;;5.57;;
30420;SDS011;17218;54.070;10.012;2024-02-14T04:54:24;6.97;;;4.80;;
30420;SDS011;17218;54.070;10.012;2024-02-14T04:56:51;7.13;;;4.43;;
30420;SDS011;17218;54.070;10.012;2024-02-14T04:59:19;5.80;;;4.33;;
30420;SDS011;17218;54.070;10.012;2024-02-14T05:01:45;8.13;;;4.50;;
30420;SDS011;17218;54.070;10.012;2024-02-14T05:04:12;5.87;;;3.97;;
30420;SDS011;17218;54.070;10.012;2024-02-14T05:06:39;7.87;;;4.93;;
30420;SDS011;17218;54.070;10.012;2024-02-14T05:09:07;6.03;;;4.43;;
30420;SDS011;17218;54.070;10.012;2024-02-14T05:11:35;8.20;;;5.00;;
30420;SDS011;17218;54.070;10.012;2024-02-14T05:14:02;8.67;;;4.60;;
30420;SDS011;17218;54.070;10.012;2024-02-14T05:16:30;6.50;;;4.33;;
30420;SDS011;17218;54.070;10.012;2024-02-14T05:18:56;6.70;;;4.30;;
30420;SDS011;17218;54.070;10.012;2024-02-14T05:21:23;6.70;;;4.60;;
30420;SDS011;17218;54.070;10.012;2024-02-14T05:23:49;6.03;;;4.50;;
30420;SDS011;17218;54.070;10.012;2024-02-14T05:26:16;7.03;;;4.77;;
30420;SDS011;17218;54.070;10.012;2024-02-14T05:28:42;6.67;;;4.60;;
30420;SDS011;17218;54.070;10.012;2024-02-14T05:31:08;6.00;;;4.23;;
30420;SDS011;17218;54.070;10.012;2024-02-14T05:33:36;8.37;;;4.87;;
30420;SDS011;17218;54.070;10.012;2024-02-14T05:36:03;6.07;;;4.67;;
30420;SDS011;17218;54.070;10.012;2024-02-14T05:38:30;6.37;;;4.60;;
30420;SDS011;17218;54.070;10.012;2024-02-14T05:40:58;6.67;;;4.57;;
30420;SDS011;17218;54.070;10.012;2024-02-14T05:43:25;7.37;;;5.20;;
30420;SDS011;17218;54.070;10.012;2024-02-14T05:45:52;7.70;;;4.27;;
30420;SDS011;17218;54.070;10.012;2024-02-14T05:48:18;6.50;;;4.83;;
30420;SDS011;17218;54.070;10.012;2024-02-14T05:50:47;9.50;;;4.83;;
30420;SDS011;17218;54.070;10.012;2024-02-14T05:53:13;4.97;;;3.70;;
30420;SDS011;17218;54.070;10.012;2024-02-14T05:55:40;6.20;;;4.23;;
30420;SDS011;17218;54.070;10.012;2024-02-14T05:58:06;7.90;;;4.47;;
30420;SDS011;17218;54.070;10.012;2024-02-14T06:00:33;6.10;;;4.40;;
30420;SDS011;17218;54.070;10.012;2024-02-14T06:02:59;6.17;;;3.83;;
30420;SDS011;17218;54.070;10.012;2024-02-14T06:05:27;5.43;;;3.60;;
30420;SDS011;17218;54.070;10.012;2024-02-14T06:07:54;6.77;;;3.90;;
30420;SDS011;17218;54.070;10.012;2024-02-14T06:10:21;5.20;;;3.97;;
30420;SDS011;17218;54.070;10.012;2024-02-14T06:12:48;6.27;;;3.77;;
30420;SDS011;17218;54.070;10.012;2024-02-14T06:15:14;6.07;;;4.27;;
30420;SDS011;17218;54.070;10.012;2024-02-14T06:17:41;5.17;;;3.97;;
30420;SDS011;17218;54.070;10.012;2024-02-14T06:20:08;6.10;;;3.97;;
30420;SDS011;17218;54.070;10.012;2024-02-14T06:22:36;5.30;;;3.57;;
30420;SDS011;17218;54.070;10.012;2024-02-14T06:25:04;6.73;;;4.07;;
30420;SDS011;17218;54.070;10.012;2024-02-14T06:27:31;8.30;;;3.90;;
30420;SDS011;17218;54.070;10.012;2024-02-14T06:29:58;5.53;;;4.50;;
30420;SDS011;17218;54.070;10.012;2024-02-14T06:32:25;5.73;;;3.67;;
30420;SDS011;17218;54.070;10.012;2024-02-14T06:34:52;6.27;;;3.80;;
30420;SDS011;17218;54.070;10.012;2024-02-14T06:37:18;7.90;;;3.97;;
30420;SDS011;17218;54.070;10.012;2024-02-14T06:39:45;4.80;;;3.67;;
30420;SDS011;17218;54.070;10.012;2024-02-14T06:42:14;6.53;;;3.87;;
30420;SDS011;17218;54.070;10.012;2024-02-14T06:44:41;4.77;;;3.43;;
30420;SDS011;17218;54.070;10.012;2024-02-14T06:47:07;6.00;;;4.07;;
30420;SDS011;17218;54.070;10.012;2024-02-14T06:49:34;5.83;;;3.77;;
30420;SDS011;17218;54.070;10.012;2024-02-14T06:52:00;4.20;;;3.20;;
30420;SDS011;17218;54.070;10.012;2024-02-14T06:54:27;7.10;;;3.97;;
30420;SDS011;17218;54.070;10.012;2024-02-14T06:56:53;6.73;;;4.17;;
30420;SDS011;17218;54.070;10.012;2024-02-14T06:59:21;5.20;;;3.70;;
30420;SDS011;17218;54.070;10.012;2024-02-14T07:01:47;6.10;;;4.00;;
30420;SDS011;17218;54.070;10.012;2024-02-14T07:04:14;5.40;;;3.73;;
30420;SDS011;17218;54.070;10.012;2024-02-14T07:06:41;6.07;;;4.10;;
30420;SDS011;17218;54.070;10.012;2024-02-14T07:09:07;5.40;;;3.73;;
30420;SDS011;17218;54.070;10.012;2024-02-14T07:11:34;6.80;;;4.20;;
30420;SDS011;17218;54.070;10.012;2024-02-14T07:14:03;5.70;;;4.23;;
30420;SDS011;17218;54.070;10.012;2024-02-14T07:16:30;7.30;;;5.00;;
30420;SDS011;17218;54.070;10.012;2024-02-14T07:18:57;5.63;;;4.27;;
30420;SDS011;17218;54.070;10.012;2024-02-14T07:21:23;6.93;;;4.40;;
30420;SDS011;17218;54.070;10.012;2024-02-14T07:23:50;7.57;;;4.17;;
30420;SDS011;17218;54.070;10.012;2024-02-14T07:26:18;6.00;;;4.27;;
30420;SDS011;17218;54.070;10.012;2024-02-14T07:28:45;6.43;;;4.20;;
30420;SDS011;17218;54.070;10.012;2024-02-14T07:31:12;6.17;;;4.30;;
30420;SDS011;17218;54.070;10.012;2024-02-14T07:33:39;8.80;;;4.53;;
30420;SDS011;17218;54.070;10.012;2024-02-14T07:36:06;6.53;;;4.60;;
30420;SDS011;17218;54.070;10.012;2024-02-14T07:38:34;7.83;;;5.03;;
30420;SDS011;17218;54.070;10.012;2024-02-14T07:41:00;8.23;;;3.70;;
30420;SDS011;17218;54.070;10.012;2024-02-14T07:43:27;7.87;;;4.43;;
30420;SDS011;17218;54.070;10.012;2024-02-14T07:45:53;6.00;;;4.40;;
30420;SDS011;17218;54.070;10.012;2024-02-14T07:48:19;9.27;;;4.80;;
30420;SDS011;17218;54.070;10.012;2024-02-14T07:50:48;7.97;;;5.23;;
30420;SDS011;17218;54.070;10.012;2024-02-14T07:53:15;7.23;;;4.73;;
30420;SDS011;17218;54.070;10.012;2024-02-14T07:55:41;8.80;;;4.67;;
30420;SDS011;17218;54.070;10.012;2024-02-14T07:58:08;6.40;;;4.67;;
30420;SDS011;17218;54.070;10.012;2024-02-14T08:00:34;7.83;;;4.50;;
30420;SDS011;17218;54.070;10.012;2024-02-14T08:03:01;7.30;;;4.93;;
30420;SDS011;17218;54.070;10.012;2024-02-14T08:05:28;10.17;;;4.90;;
30420;SDS011;17218;54.070;10.012;2024-02-14T08:07:56;8.17;;;5.53;;
30420;SDS011;17218;54.070;10.012;2024-02-14T08:10:23;8.53;;;5.30;;
30420;SDS011;17218;54.070;10.012;2024-02-14T08:12:49;8.20;;;3.93;;
30420;SDS011;17218;54.070;10.012;2024-02-14T08:15:16;7.83;;;5.17;;
30420;SDS011;17218;54.070;10.012;2024-02-14T08:17:42;7.53;;;5.03;;
30420;SDS011;17218;54.070;10.012;2024-02-14T08:20:09;7.07;;;4.57;;
30420;SDS011;17218;54.070;10.012;2024-02-14T08:22:36;8.67;;;5.20;;
30420;SDS011;17218;54.070;10.012;2024-02-14T08:25:04;6.67;;;5.03;;
30420;SDS011;17218;54.070;10.012;2024-02-14T08:27:32;6.90;;;5.13;;
30420;SDS011;17218;54.070;10.012;2024-02-14T08:29:58;7.03;;;4.77;;
30420;SDS011;17218;54.070;10.012;2024-02-14T08:32:24;7.13;;;4.53;;
30420;SDS011;17218;54.070;10.012;2024-02-14T08:34:51;8.67;;;4.23;;
30420;SDS011;17218;54.070;10.012;2024-02-14T08:37:17;7.10;;;4.53;;
30420;SDS011;17218;54.070;10.012;2024-02-14T08:39:44;6.90;;;4.53;;
30420;SDS011;17218;54.070;10.012;2024-02-14T08:42:12;7.23;;;4.37;;
30420;SDS011;17218;54.070;10.012;2024-02-14T08:44:38;5.90;;;4.27;;
30420;SDS011;17218;54.070;10.012;2024-02-14T08:47:06;9.57;;;4.97;;
30420;SDS011;17218;54.070;10.012;2024-02-14T08:49:33;6.73;;;4.00;;
30420;SDS011;17218;54.070;10.012;2024-02-14T08:52:00;5.73;;;4.23;;
30420;SDS011;17218;54.070;10.012;2024-02-14T08:54:27;5.43;;;4.03;;
30420;SDS011;17218;54.070;10.012;2024-02-14T08:56:53;6.45;;;4.43;;
30420;SDS011;17218;54.070;10.012;2024-02-14T08:59:24;5.27;;;4.23;;
30420;SDS011;17218;54.070;10.012;2024-02-14T09:01:51;7.13;;;4.23;;
30420;SDS011;17218;54.070;10.012;2024-02-14T09:04:17;6.43;;;4.13;;
30420;SDS011;17218;54.070;10.012;2024-02-14T09:06:44;6.63;;;4.97;;
30420;SDS011;17218;54.070;10.012;2024-02-14T09:09:10;7.70;;;4.80;;
30420;SDS011;17218;54.070;10.012;2024-02-14T09:11:39;7.03;;;4.97;;
30420;SDS011;17218;54.070;10.012;2024-02-14T09:14:06;8.40;;;4.40;;
30420;SDS011;17218;54.070;10.012;2024-02-14T09:16:34;6.50;;;4.60;;
30420;SDS011;17218;54.070;10.012;2024-02-14T09:19:00;7.43;;;4.60;;
30420;SDS011;17218;54.070;10.012;2024-02-14T09:21:27;7.00;;;5.20;;
30420;SDS011;17218;54.070;10.012;2024-02-14T09:23:54;7.22;;;5.15;;
30420;SDS011;17218;54.070;10.012;2024-02-14T09:26:20;6.40;;;4.47;;
30420;SDS011;17218;54.070;10.012;2024-02-14T09:28:46;8.35;;;5.00;;
30420;SDS011;17218;54.070;10.012;2024-02-14T09:31:17;6.07;;;4.43;;
30420;SDS011;17218;54.070;10.012;2024-02-14T09:33:46;9.05;;;5.50;;
30420;SDS011;17218;54.070;10.012;2024-02-14T09:36:12;6.28;;;4.95;;
30420;SDS011;17218;54.070;10.012;2024-02-14T09:38:39;6.13;;;4.33;;
30420;SDS011;17218;54.070;10.012;2024-02-14T09:41:06;10.13;;;4.93;;
30420;SDS011;17218;54.070;10.012;2024-02-14T09:43:43;7.20;;;5.03;;
30420;SDS011;17218;54.070;10.012;2024-02-14T09:46:11;6.50;;;5.10;;
30420;SDS011;17218;54.070;10.012;2024-02-14T09:48:39;8.23;;;6.23;;
30420;SDS011;17218;54.070;10.012;2024-02-14T09:51:09;7.63;;;5.53;;
30420;SDS011;17218;54.070;10.012;2024-02-14T09:53:35;7.97;;;5.70;;
30420;SDS011;17218;54.070;10.012;2024-02-14T09:56:02;8.93;;;6.25;;
30420;SDS011;17218;54.070;10.012;2024-02-14T09:58:29;9.17;;;6.10;;
30420;SDS011;17218;54.070;10.012;2024-02-14T10:00:57;8.03;;;5.93;;
30420;SDS011;17218;54.070;10.012;2024-02-14T10:03:23;10.53;;;6.80;;
30420;SDS011;17218;54.070;10.012;2024-02-14T10:05:50;12.40;;;7.37;;
30420;SDS011;17218;54.070;10.012;2024-02-14T10:08:18;11.37;;;7.10;;
30420;SDS011;17218;54.070;10.012;2024-02-14T10:10:45;9.97;;;6.00;;
30420;SDS011;17218;54.070;10.012;2024-02-14T10:13:12;11.90;;;6.70;;
30420;SDS011;17218;54.070;10.012;2024-02-14T10:15:38;10.77;;;7.80;;
30420;SDS011;17218;54.070;10.012;2024-02-14T10:18:05;11.85;;;7.80;;
30420;SDS011;17218;54.070;10.012;2024-02-14T10:20:34;11.60;;;7.35;;
30420;SDS011;17218;54.070;10.012;2024-02-14T10:23:07;13.52;;;7.63;;
30420;SDS011;17218;54.070;10.012;2024-02-14T10:25:35;14.02;;;7.75;;
30420;SDS011;17218;54.070;10.012;2024-02-14T10:28:03;12.70;;;7.75;;
30420;SDS011;17218;54.070;10.012;2024-02-14T10:30:33;13.13;;;8.05;;
30420;SDS011;17218;54.070;10.012;2024-02-14T10:33:01;12.48;;;7.65;;
30420;SDS011;17218;54.070;10.012;2024-02-14T10:35:28;13.80;;;8.18;;
30420;SDS011;17218;54.070;10.012;2024-02-14T10:37:57;13.02;;;7.43;;
30420;SDS011;17218;54.070;10.012;2024-02-14T10:40:26;15.80;;;8.07;;
30420;SDS011;17218;54.070;10.012;2024-02-14T10:42:54;14.07;;;8.38;;
30420;SDS011;17218;54.070;10.012;2024-02-14T10:45:23;17.77;;;7.78;;
30420;SDS011;17218;54.070;10.012;2024-02-14T10:47:50;10.45;;;7.07;;
30420;SDS011;17218;54.070;10.012;2024-02-14T10:50:19;9.75;;;6.68;;
30420;SDS011;17218;54.070;10.012;2024-02-14T10:52:48;9.95;;;6.85;;
30420;SDS011;17218;54.070;10.012;2024-02-14T10:55:16;10.38;;;6.43;;
30420;SDS011;17218;54.070;10.012;2024-02-14T10:57:43;10.15;;;6.85;;
30420;SDS011;17218;54.070;10.012;2024-02-14T11:00:14;11.55;;;7.28;;
30420;SDS011;17218;54.070;10.012;2024-02-14T11:02:43;11.25;;;6.60;;
30420;SDS011;17218;54.070;10.012;2024-02-14T11:05:11;11.50;;;7.05;;
30420;SDS011;17218;54.070;10.012;2024-02-14T11:07:43;9.60;;;6.47;;
30420;SDS011;17218;54.070;10.012;2024-02-14T11:10:12;8.15;;;5.55;;
30420;SDS011;17218;54.070;10.012;2024-02-14T11:12:40;9.82;;;6.13;;
30420;SDS011;17218;54.070;10.012;2024-02-14T11:15:10;8.10;;;6.32;;
30420;SDS011;17218;54.070;10.012;2024-02-14T11:17:42;9.80;;;6.30;;
30420;SDS011;17218;54.070;10.012;2024-02-14T11:20:16;8.25;;;5.80;;
30420;SDS011;17218;54.070;10.012;2024-02-14T11:22:50;8.35;;;5.75;;
30420;SDS011;17218;54.070;10.012;2024-02-14T11:25:21;7.68;;;5.45;;
30420;SDS011;17218;54.070;10.012;2024-02-14T11:27:49;7.47;;;5.07;;
30420;SDS011;17218;54.070;10.012;2024-02-14T11:30:27;7.38;;;4.70;;
30420;SDS011;17218;54.070;10.012;2024-02-14T11:32:55;5.80;;;4.32;;
30420;SDS011;17218;54.070;10.012;2024-02-14T11:35:32;6.40;;;4.43;;
30420;SDS011;17218;54.070;10.012;2024-02-14T11:37:59;5.45;;;3.97;;
30420;SDS011;17218;54.070;10.012;2024-02-14T11:40:25;6.07;;;3.92;;
30420;SDS011;17218;54.070;10.012;2024-02-14T11:42:52;5.03;;;3.70;;
30420;SDS011;17218;54.070;10.012;2024-02-14T11:45:19;7.35;;;4.43;;
30420;SDS011;17218;54.070;10.012;2024-02-14T11:47:46;5.53;;;3.90;;
30420;SDS011;17218;54.070;10.012;2024-02-14T11:50:13;3.58;;;2.83;;
30420;SDS011;17218;54.070;10.012;2024-02-14T11:52:40;3.65;;;2.90;;
30420;SDS011;17218;54.070;10.012;2024-02-14T11:55:07;4.35;;;3.30;;
30420;SDS011;17218;54.070;10.012;2024-02-14T11:57:34;3.10;;;2.35;;
30420;SDS011;17218;54.070;10.012;2024-02-14T12:00:02;3.55;;;2.55;;
30420;SDS011;17218;54.070;10.012;2024-02-14T12:02:29;3.47;;;2.83;;
30420;SDS011;17218;54.070;10.012;2024-02-14T12:04:58;3.60;;;2.80;;
30420;SDS011;17218;54.070;10.012;2024-02-14T12:07:24;3.00;;;2.35;;
30420;SDS011;17218;54.070;10.012;2024-02-14T12:09:51;2.72;;;2.35;;
30420;SDS011;17218;54.070;10.012;2024-02-14T12:12:18;3.67;;;2.72;;
30420;SDS011;17218;54.070;10.012;2024-02-14T12:14:45;2.88;;;2.08;;
30420;SDS011;17218;54.070;10.012;2024-02-14T12:17:15;3.15;;;1.90;;
30420;SDS011;17218;54.070;10.012;2024-02-14T12:19:43;3.00;;;2.40;;
30420;SDS011;17218;54.070;10.012;2024-02-14T12:22:11;2.40;;;2.15;;
30420;SDS011;17218;54.070;10.012;2024-02-14T12:24:42;3.00;;;2.45;;
30420;SDS011;17218;54.070;10.012;2024-02-14T12:27:09;2.90;;;2.20;;
30420;SDS011;17218;54.070;10.012;2024-02-14T12:29:35;2.45;;;1.83;;
30420;SDS011;17218;54.070;10.012;2024-02-14T12:32:03;3.03;;;2.45;;
30420;SDS011;17218;54.070;10.012;2024-02-14T12:34:30;3.20;;;2.22;;
30420;SDS011;17218;54.070;10.012;2024-02-14T12:36:58;3.08;;;2.28;;
30420;SDS011;17218;54.070;10.012;2024-02-14T12:39:27;2.30;;;2.08;;
30420;SDS011;17218;54.070;10.012;2024-02-14T12:41:54;3.45;;;2.25;;
30420;SDS011;17218;54.070;10.012;2024-02-14T12:44:21;3.38;;;2.20;;
30420;SDS011;17218;54.070;10.012;2024-02-14T12:46:47;2.58;;;2.10;;
30420;SDS011;17218;54.070;10.012;2024-02-14T12:49:13;3.88;;;1.92;;
30420;SDS011;17218;54.070;10.012;2024-02-14T12:51:40;2.92;;;2.20;;
30420;SDS011;17218;54.070;10.012;2024-02-14T12:54:07;2.95;;;1.95;;
30420;SDS011;17218;54.070;10.012;2024-02-14T12:56:36;2.58;;;2.20;;
30420;SDS011;17218;54.070;10.012;2024-02-14T12:59:03;2.35;;;1.70;;
30420;SDS011;17218;54.070;10.012;2024-02-14T13:01:29;2.25;;;1.70;;
30420;SDS011;17218;54.070;10.012;2024-02-14T13:03:55;2.42;;;2.00;;
30420;SDS011;17218;54.070;10.012;2024-02-14T13:06:22;3.55;;;2.00;;
30420;SDS011;17218;54.070;10.012;2024-02-14T13:08:49;2.33;;;1.73;;
30420;SDS011;17218;54.070;10.012;2024-02-14T13:11:15;3.22;;;2.13;;
30420;SDS011;17218;54.070;10.012;2024-02-14T13:13:45;2.75;;;2.13;;
30420;SDS011;17218;54.070;10.012;2024-02-14T13:16:11;3.63;;;2.50;;
30420;SDS011;17218;54.070;10.012;2024-02-14T13:18:38;3.03;;;2.03;;
30420;SDS011;17218;54.070;10.012;2024-02-14T13:21:05;2.72;;;2.00;;
30420;SDS011;17218;54.070;10.012;2024-02-14T13:23:31;2.40;;;1.88;;
30420;SDS011;17218;54.070;10.012;2024-02-14T13:25:58;2.42;;;2.03;;
30420;SDS011;17218;54.070;10.012;2024-02-14T13:28:25;2.15;;;1.80;;
30420;SDS011;17218;54.070;10.012;2024-02-14T13:30:52;2.78;;;1.95;;
30420;SDS011;17218;54.070;10.012;2024-02-14T13:33:19;3.28;;;2.30;;
30420;SDS011;17218;54.070;10.012;2024-02-14T13:35:45;2.45;;;2.17;;
30420;SDS011;17218;54.070;10.012;2024-02-14T13:38:12;3.83;;;2.42;;
30420;SDS011;17218;54.070;10.012;2024-02-14T13:40:38;2.55;;;1.92;;
30420;SDS011;17218;54.070;10.012;2024-02-14T13:43:04;2.53;;;1.83;;
30420;SDS011;17218;54.070;10.012;2024-02-14T13:45:39;2.17;;;1.70;;
30420;SDS011;17218;54.070;10.012;2024-02-14T13:48:09;2.15;;;1.55;;
30420;SDS011;17218;54.070;10.012;2024-02-14T13:50:36;1.95;;;1.73;;
30420;SDS011;17218;54.070;10.012;2024-02-14T13:53:04;2.40;;;1.83;;
30420;SDS011;17218;54.070;10.012;2024-02-14T13:55:30;1.58;;;1.48;;
30420;SDS011;17218;54.070;10.012;2024-02-14T13:57:57;2.83;;;1.83;;
30420;SDS011;17218;54.070;10.012;2024-02-14T14:00:23;2.72;;;2.25;;
30420;SDS011;17218;54.070;10.012;2024-02-14T14:02:50;2.65;;;2.05;;
30420;SDS011;17218;54.070;10.012;2024-02-14T14:05:17;2.35;;;1.80;;
30420;SDS011;17218;54.070;10.012;2024-02-14T14:07:46;2.75;;;1.65;;
30420;SDS011;17218;54.070;10.012;2024-02-14T14:10:13;1.60;;;1.35;;
30420;SDS011;17218;54.070;10.012;2024-02-14T14:12:40;1.80;;;1.50;;
30420;SDS011;17218;54.070;10.012;2024-02-14T14:15:07;1.67;;;1.42;;
30420;SDS011;17218;54.070;10.012;2024-02-14T14:17:34;2.67;;;1.42;;
30420;SDS011;17218;54.070;10.012;2024-02-14T14:20:00;2.17;;;1.70;;
30420;SDS011;17218;54.070;10.012;2024-02-14T14:22:30;1.50;;;1.40;;
30420;SDS011;17218;54.070;10.012;2024-02-14T14:24:56;2.20;;;1.70;;
30420;SDS011;17218;54.070;10.012;2024-02-14T14:27:22;1.48;;;1.27;;
30420;SDS011;17218;54.070;10.012;2024-02-14T14:29:49;1.73;;;1.55;;
30420;SDS011;17218;54.070;10.012;2024-02-14T14:32:15;1.60;;;1.48;;